OKE-NW GA US current weather conditions

sailwx.info

Wind from 058 at 6 knots gusting 13

Air temperature 12.2° C
Dewpoint 9.2° C

Last reported at 2019-Dec-12 22:10 UTC.
Time now 2019-Dec-12 23:32 UTC

Location: N 30°59' W 082°24'.
View on Google Maps.

See reports from other nearby stations

  
Tides and Currents Weather Stations Pressure Air Temp Water Temp Dewpoint Dewpoint Depression Visibility Wind Speed Wind Dir Waves Ship Positions
date/time (UTC)wind fromknots sea level pressurealtimeterstation pressurevisibilityair tempwater tempwave heightnotes
2019-Dec-12 22:10 058 6 gusting 13 12.2
2019-Dec-12 21:10 049 6 gusting 12 13.3
2019-Dec-12 20:10 069 7 gusting 15 13.9
2019-Dec-12 19:10 054 7 gusting 13 14.4
2019-Dec-12 18:10 048 6 gusting 13 13.3
2019-Dec-12 17:10 047 7 gusting 14 11.7
2019-Dec-12 16:10 046 6 gusting 12 10.0
2019-Dec-12 15:10 044 6 gusting 12 8.3
2019-Dec-12 14:10 035 4 gusting 10 7.2
2019-Dec-12 13:10 034 4 gusting 9 7.2
2019-Dec-12 12:10 040 6 gusting 11 7.8
2019-Dec-12 11:10 045 6 gusting 14 8.9
2019-Dec-12 10:10 044 6 gusting 12 8.9
2019-Dec-12 09:10 038 5 gusting 11 8.3
2019-Dec-12 08:10 047 5 gusting 9 8.9
2019-Dec-12 06:10 048 5 gusting 12 9.4
2019-Dec-12 05:10 044 6 gusting 13 10.6
2019-Dec-12 04:10 044 6 gusting 14 11.1
2019-Dec-12 03:10 042 5 gusting 12 11.1
2019-Dec-12 02:10 038 5 gusting 9 11.1
2019-Dec-12 01:10 034 6 gusting 11 11.7
2019-Dec-12 00:10 024 4 gusting 11 11.7
2019-Dec-11 23:10 010 5 gusting 12 12.2
2019-Dec-11 22:10 356 6 gusting 13 13.3
2019-Dec-11 21:10 012 5 gusting 13 14.4
2019-Dec-11 20:10 007 5 gusting 13 14.4
2019-Dec-11 19:10 009 5 gusting 12 14.4
2019-Dec-11 18:10 019 6 gusting 13 13.9
2019-Dec-11 17:10 020 4 gusting 12 13.9
2019-Dec-11 16:10 020 4 gusting 10 12.2
2019-Dec-11 15:10 008 5 gusting 15 10.6
2019-Dec-11 14:10 350 6 gusting 13 10.0
2019-Dec-11 13:10 351 6 gusting 12 10.0
2019-Dec-11 12:10 352 1 gusting 9 10.6
2019-Dec-11 11:10 345 5 gusting 11 11.1
2019-Dec-11 10:10 341 6 gusting 13 11.7
2019-Dec-11 09:10 345 6 gusting 11 12.8
2019-Dec-11 08:10 326 6 gusting 11 13.9
2019-Dec-11 07:10 332 5 gusting 12 15.6
2019-Dec-11 06:10 20.0
2019-Dec-11 05:10 212 3 gusting 7 21.1
2019-Dec-11 04:10 212 2 gusting 6 21.1
2019-Dec-11 03:10 229 4 gusting 6 21.1
2019-Dec-11 02:10 207 2 gusting 5 21.1
2019-Dec-11 01:10 208 1 gusting 6 21.1
2019-Dec-11 00:10 207 3 gusting 9 22.8
2019-Dec-10 23:10 216 4 gusting 12 23.3